sensor_id;sensor_type;location;lat;lon;timestamp;P1;durP1;ratioP1;P2;durP2;ratioP2
79005;SDS011;69202;45.498;-73.582;2023-09-30T00:01:02;54.63;;;35.20;;
79005;SDS011;69202;45.498;-73.582;2023-09-30T00:03:28;54.00;;;35.00;;
79005;SDS011;69202;45.498;-73.582;2023-09-30T00:05:54;51.55;;;34.58;;
79005;SDS011;69202;45.498;-73.582;2023-09-30T00:08:20;55.72;;;36.90;;
79005;SDS011;69202;45.498;-73.582;2023-09-30T00:10:46;54.75;;;36.67;;
79005;SDS011;69202;45.498;-73.582;2023-09-30T00:13:13;56.15;;;36.17;;
79005;SDS011;69202;45.498;-73.582;2023-09-30T00:15:38;57.92;;;36.05;;
79005;SDS011;69202;45.498;-73.582;2023-09-30T00:18:06;58.88;;;37.70;;
79005;SDS011;69202;45.498;-73.582;2023-09-30T00:20:32;53.75;;;36.08;;
79005;SDS011;69202;45.498;-73.582;2023-09-30T00:22:58;65.15;;;36.03;;
79005;SDS011;69202;45.498;-73.582;2023-09-30T00:25:35;59.03;;;36.97;;
79005;SDS011;69202;45.498;-73.582;2023-09-30T00:28:01;58.70;;;34.97;;
79005;SDS011;69202;45.498;-73.582;2023-09-30T00:30:27;60.80;;;36.45;;
79005;SDS011;69202;45.498;-73.582;2023-09-30T00:32:53;53.58;;;35.88;;
79005;SDS011;69202;45.498;-73.582;2023-09-30T00:35:19;58.80;;;37.45;;
79005;SDS011;69202;45.498;-73.582;2023-09-30T00:37:45;54.38;;;35.30;;
79005;SDS011;69202;45.498;-73.582;2023-09-30T00:40:11;53.35;;;35.20;;
79005;SDS011;69202;45.498;-73.582;2023-09-30T00:42:39;62.05;;;37.08;;
79005;SDS011;69202;45.498;-73.582;2023-09-30T00:45:05;54.67;;;35.05;;
79005;SDS011;69202;45.498;-73.582;2023-09-30T00:47:34;53.90;;;34.72;;
79005;SDS011;69202;45.498;-73.582;2023-09-30T00:50:02;59.08;;;34.85;;
79005;SDS011;69202;45.498;-73.582;2023-09-30T00:52:32;55.67;;;36.35;;
79005;SDS011;69202;45.498;-73.582;2023-09-30T00:54:59;56.60;;;34.90;;
79005;SDS011;69202;45.498;-73.582;2023-09-30T00:57:26;56.10;;;36.35;;
79005;SDS011;69202;45.498;-73.582;2023-09-30T00:59:53;55.63;;;35.63;;
79005;SDS011;69202;45.498;-73.582;2023-09-30T01:02:19;53.47;;;34.70;;
79005;SDS011;69202;45.498;-73.582;2023-09-30T01:04:48;62.15;;;36.65;;
79005;SDS011;69202;45.498;-73.582;2023-09-30T01:07:14;56.83;;;35.42;;
79005;SDS011;69202;45.498;-73.582;2023-09-30T01:09:40;57.25;;;35.92;;
79005;SDS011;69202;45.498;-73.582;2023-09-30T01:12:06;52.80;;;34.72;;
79005;SDS011;69202;45.498;-73.582;2023-09-30T01:14:33;52.70;;;34.22;;
79005;SDS011;69202;45.498;-73.582;2023-09-30T01:17:00;51.63;;;34.40;;
79005;SDS011;69202;45.498;-73.582;2023-09-30T01:19:27;52.00;;;34.03;;
79005;SDS011;69202;45.498;-73.582;2023-09-30T01:21:54;53.42;;;32.95;;
79005;SDS011;69202;45.498;-73.582;2023-09-30T01:24:24;56.90;;;34.03;;
79005;SDS011;69202;45.498;-73.582;2023-09-30T01:26:51;53.35;;;33.65;;
79005;SDS011;69202;45.498;-73.582;2023-09-30T01:29:17;35.38;;;24.27;;
79005;SDS011;69202;45.498;-73.582;2023-09-30T01:31:43;49.83;;;32.25;;
79005;SDS011;69202;45.498;-73.582;2023-09-30T01:34:13;43.88;;;28.92;;
79005;SDS011;69202;45.498;-73.582;2023-09-30T01:36:43;28.73;;;20.70;;
79005;SDS011;69202;45.498;-73.582;2023-09-30T01:39:09;26.08;;;18.88;;
79005;SDS011;69202;45.498;-73.582;2023-09-30T01:41:39;30.15;;;21.23;;
79005;SDS011;69202;45.498;-73.582;2023-09-30T01:44:06;38.08;;;24.63;;
79005;SDS011;69202;45.498;-73.582;2023-09-30T01:46:32;35.72;;;25.13;;
79005;SDS011;69202;45.498;-73.582;2023-09-30T01:48:59;32.28;;;20.92;;
79005;SDS011;69202;45.498;-73.582;2023-09-30T01:51:25;47.25;;;30.60;;
79005;SDS011;69202;45.498;-73.582;2023-09-30T01:53:50;51.80;;;30.50;;
79005;SDS011;69202;45.498;-73.582;2023-09-30T01:56:17;45.75;;;31.15;;
79005;SDS011;69202;45.498;-73.582;2023-09-30T01:58:43;47.33;;;31.38;;
79005;SDS011;69202;45.498;-73.582;2023-09-30T02:01:09;44.38;;;29.92;;
79005;SDS011;69202;45.498;-73.582;2023-09-30T02:03:35;47.53;;;30.63;;
79005;SDS011;69202;45.498;-73.582;2023-09-30T02:06:01;36.25;;;23.88;;
79005;SDS011;69202;45.498;-73.582;2023-09-30T02:08:28;45.33;;;29.95;;
79005;SDS011;69202;45.498;-73.582;2023-09-30T02:10:54;43.50;;;28.02;;
79005;SDS011;69202;45.498;-73.582;2023-09-30T02:13:20;45.15;;;28.48;;
79005;SDS011;69202;45.498;-73.582;2023-09-30T02:15:46;49.30;;;28.70;;
79005;SDS011;69202;45.498;-73.582;2023-09-30T02:18:12;47.10;;;29.73;;
79005;SDS011;69202;45.498;-73.582;2023-09-30T02:20:38;47.60;;;29.60;;
79005;SDS011;69202;45.498;-73.582;2023-09-30T02:23:08;42.20;;;29.02;;
79005;SDS011;69202;45.498;-73.582;2023-09-30T02:25:41;46.92;;;28.95;;
79005;SDS011;69202;45.498;-73.582;2023-09-30T02:28:08;48.35;;;28.95;;
79005;SDS011;69202;45.498;-73.582;2023-09-30T02:30:35;42.63;;;27.63;;
79005;SDS011;69202;45.498;-73.582;2023-09-30T02:33:01;42.38;;;29.42;;
79005;SDS011;69202;45.498;-73.582;2023-09-30T02:35:28;43.95;;;29.20;;
79005;SDS011;69202;45.498;-73.582;2023-09-30T02:37:54;44.10;;;27.88;;
79005;SDS011;69202;45.498;-73.582;2023-09-30T02:40:20;44.50;;;28.10;;
79005;SDS011;69202;45.498;-73.582;2023-09-30T02:42:50;46.42;;;28.80;;
79005;SDS011;69202;45.498;-73.582;2023-09-30T02:45:17;44.60;;;28.65;;
79005;SDS011;69202;45.498;-73.582;2023-09-30T02:47:43;47.03;;;29.58;;
79005;SDS011;69202;45.498;-73.582;2023-09-30T02:50:09;46.83;;;29.90;;
79005;SDS011;69202;45.498;-73.582;2023-09-30T02:52:41;43.47;;;27.70;;
79005;SDS011;69202;45.498;-73.582;2023-09-30T02:55:10;47.13;;;29.17;;
79005;SDS011;69202;45.498;-73.582;2023-09-30T02:57:37;43.75;;;28.27;;
79005;SDS011;69202;45.498;-73.582;2023-09-30T03:00:03;41.20;;;28.35;;
79005;SDS011;69202;45.498;-73.582;2023-09-30T03:02:56;44.33;;;29.08;;
79005;SDS011;69202;45.498;-73.582;2023-09-30T03:05:22;41.05;;;28.70;;
79005;SDS011;69202;45.498;-73.582;2023-09-30T03:07:52;43.17;;;28.38;;
79005;SDS011;69202;45.498;-73.582;2023-09-30T03:10:18;38.97;;;27.52;;
79005;SDS011;69202;45.498;-73.582;2023-09-30T03:12:49;41.17;;;28.83;;
79005;SDS011;69202;45.498;-73.582;2023-09-30T03:15:15;44.88;;;29.50;;
79005;SDS011;69202;45.498;-73.582;2023-09-30T03:17:42;47.13;;;29.23;;
79005;SDS011;69202;45.498;-73.582;2023-09-30T03:20:08;38.22;;;24.65;;
79005;SDS011;69202;45.498;-73.582;2023-09-30T03:22:40;33.15;;;22.52;;
79005;SDS011;69202;45.498;-73.582;2023-09-30T03:25:09;24.63;;;17.67;;
79005;SDS011;69202;45.498;-73.582;2023-09-30T03:27:37;33.10;;;22.02;;
79005;SDS011;69202;45.498;-73.582;2023-09-30T03:30:07;47.30;;;29.02;;
79005;SDS011;69202;45.498;-73.582;2023-09-30T03:32:34;51.05;;;28.30;;
79005;SDS011;69202;45.498;-73.582;2023-09-30T03:35:06;50.38;;;29.60;;
79005;SDS011;69202;45.498;-73.582;2023-09-30T03:37:38;47.60;;;28.60;;
79005;SDS011;69202;45.498;-73.582;2023-09-30T03:40:06;50.20;;;29.90;;
79005;SDS011;69202;45.498;-73.582;2023-09-30T03:42:45;44.47;;;30.23;;
79005;SDS011;69202;45.498;-73.582;2023-09-30T03:45:14;42.00;;;28.23;;
79005;SDS011;69202;45.498;-73.582;2023-09-30T03:47:40;43.45;;;29.30;;
79005;SDS011;69202;45.498;-73.582;2023-09-30T03:50:07;45.65;;;29.00;;
79005;SDS011;69202;45.498;-73.582;2023-09-30T03:52:39;45.72;;;28.90;;
79005;SDS011;69202;45.498;-73.582;2023-09-30T03:55:12;49.38;;;30.05;;
79005;SDS011;69202;45.498;-73.582;2023-09-30T03:57:39;44.55;;;29.08;;
79005;SDS011;69202;45.498;-73.582;2023-09-30T04:00:05;44.97;;;28.73;;
79005;SDS011;69202;45.498;-73.582;2023-09-30T04:02:32;42.75;;;28.95;;
79005;SDS011;69202;45.498;-73.582;2023-09-30T04:04:59;44.63;;;29.27;;
79005;SDS011;69202;45.498;-73.582;2023-09-30T04:07:28;52.38;;;29.63;;
79005;SDS011;69202;45.498;-73.582;2023-09-30T04:09:54;47.38;;;29.63;;
79005;SDS011;69202;45.498;-73.582;2023-09-30T04:12:21;50.13;;;29.20;;
79005;SDS011;69202;45.498;-73.582;2023-09-30T04:14:51;41.92;;;29.58;;
79005;SDS011;69202;45.498;-73.582;2023-09-30T04:17:18;43.00;;;29.35;;
79005;SDS011;69202;45.498;-73.582;2023-09-30T04:19:44;44.13;;;29.55;;
79005;SDS011;69202;45.498;-73.582;2023-09-30T04:22:11;41.92;;;29.05;;
79005;SDS011;69202;45.498;-73.582;2023-09-30T04:24:38;48.95;;;29.38;;
79005;SDS011;69202;45.498;-73.582;2023-09-30T04:27:04;51.65;;;28.98;;
79005;SDS011;69202;45.498;-73.582;2023-09-30T04:29:32;49.08;;;28.23;;
79005;SDS011;69202;45.498;-73.582;2023-09-30T04:31:59;45.80;;;30.17;;
79005;SDS011;69202;45.498;-73.582;2023-09-30T04:34:27;41.92;;;29.30;;
79005;SDS011;69202;45.498;-73.582;2023-09-30T04:36:53;41.90;;;27.95;;
79005;SDS011;69202;45.498;-73.582;2023-09-30T04:39:19;49.75;;;31.17;;
79005;SDS011;69202;45.498;-73.582;2023-09-30T04:41:45;38.92;;;27.95;;
79005;SDS011;69202;45.498;-73.582;2023-09-30T04:44:12;47.35;;;28.70;;
79005;SDS011;69202;45.498;-73.582;2023-09-30T04:46:38;39.78;;;27.25;;
79005;SDS011;69202;45.498;-73.582;2023-09-30T04:49:11;44.85;;;29.17;;
79005;SDS011;69202;45.498;-73.582;2023-09-30T04:51:40;42.33;;;27.95;;
79005;SDS011;69202;45.498;-73.582;2023-09-30T04:54:06;43.70;;;28.20;;
79005;SDS011;69202;45.498;-73.582;2023-09-30T04:56:34;41.55;;;27.50;;
79005;SDS011;69202;45.498;-73.582;2023-09-30T04:59:00;27.38;;;19.83;;
79005;SDS011;69202;45.498;-73.582;2023-09-30T05:01:27;44.13;;;29.63;;
79005;SDS011;69202;45.498;-73.582;2023-09-30T05:03:53;46.80;;;29.27;;
79005;SDS011;69202;45.498;-73.582;2023-09-30T05:06:19;44.75;;;28.48;;
79005;SDS011;69202;45.498;-73.582;2023-09-30T05:08:46;43.28;;;28.30;;
79005;SDS011;69202;45.498;-73.582;2023-09-30T05:11:15;26.38;;;18.83;;
79005;SDS011;69202;45.498;-73.582;2023-09-30T05:13:41;27.55;;;20.20;;
79005;SDS011;69202;45.498;-73.582;2023-09-30T05:16:08;44.15;;;27.80;;
79005;SDS011;69202;45.498;-73.582;2023-09-30T05:18:34;40.03;;;26.80;;
79005;SDS011;69202;45.498;-73.582;2023-09-30T05:21:00;43.08;;;26.73;;
79005;SDS011;69202;45.498;-73.582;2023-09-30T05:23:26;41.75;;;26.92;;
79005;SDS011;69202;45.498;-73.582;2023-09-30T05:25:52;40.95;;;26.77;;
79005;SDS011;69202;45.498;-73.582;2023-09-30T05:28:21;40.28;;;26.88;;
79005;SDS011;69202;45.498;-73.582;2023-09-30T05:30:46;42.67;;;27.58;;
79005;SDS011;69202;45.498;-73.582;2023-09-30T05:33:12;46.10;;;27.30;;
79005;SDS011;69202;45.498;-73.582;2023-09-30T05:35:40;44.05;;;27.73;;
79005;SDS011;69202;45.498;-73.582;2023-09-30T05:38:07;41.88;;;27.73;;
79005;SDS011;69202;45.498;-73.582;2023-09-30T05:40:33;41.08;;;27.80;;
79005;SDS011;69202;45.498;-73.582;2023-09-30T05:42:59;43.22;;;28.05;;
79005;SDS011;69202;45.498;-73.582;2023-09-30T05:45:30;40.38;;;27.40;;
79005;SDS011;69202;45.498;-73.582;2023-09-30T05:48:04;41.03;;;26.20;;
79005;SDS011;69202;45.498;-73.582;2023-09-30T05:50:36;42.53;;;27.98;;
79005;SDS011;69202;45.498;-73.582;2023-09-30T05:53:03;47.55;;;26.80;;
79005;SDS011;69202;45.498;-73.582;2023-09-30T05:55:32;45.45;;;28.10;;
79005;SDS011;69202;45.498;-73.582;2023-09-30T05:57:58;43.90;;;27.95;;
79005;SDS011;69202;45.498;-73.582;2023-09-30T06:00:26;48.33;;;29.02;;
79005;SDS011;69202;45.498;-73.582;2023-09-30T06:02:56;40.33;;;27.48;;
79005;SDS011;69202;45.498;-73.582;2023-09-30T06:05:23;40.17;;;26.98;;
79005;SDS011;69202;45.498;-73.582;2023-09-30T06:07:52;43.88;;;26.25;;
79005;SDS011;69202;45.498;-73.582;2023-09-30T06:10:19;44.78;;;27.80;;
79005;SDS011;69202;45.498;-73.582;2023-09-30T06:12:46;43.97;;;27.98;;
79005;SDS011;69202;45.498;-73.582;2023-09-30T06:15:13;38.22;;;26.63;;
79005;SDS011;69202;45.498;-73.582;2023-09-30T06:17:41;42.92;;;27.55;;
79005;SDS011;69202;45.498;-73.582;2023-09-30T06:20:07;44.20;;;27.70;;
79005;SDS011;69202;45.498;-73.582;2023-09-30T06:22:41;40.63;;;27.77;;
79005;SDS011;69202;45.498;-73.582;2023-09-30T06:25:09;42.40;;;27.85;;
79005;SDS011;69202;45.498;-73.582;2023-09-30T06:27:35;42.45;;;27.45;;
79005;SDS011;69202;45.498;-73.582;2023-09-30T06:30:01;40.70;;;27.08;;
79005;SDS011;69202;45.498;-73.582;2023-09-30T06:32:26;42.75;;;27.70;;
79005;SDS011;69202;45.498;-73.582;2023-09-30T06:34:52;41.05;;;27.08;;
79005;SDS011;69202;45.498;-73.582;2023-09-30T06:37:18;47.28;;;27.70;;
79005;SDS011;69202;45.498;-73.582;2023-09-30T06:39:45;40.92;;;25.90;;
79005;SDS011;69202;45.498;-73.582;2023-09-30T06:42:10;43.13;;;27.90;;
79005;SDS011;69202;45.498;-73.582;2023-09-30T06:44:36;43.75;;;27.90;;
79005;SDS011;69202;45.498;-73.582;2023-09-30T06:47:02;43.65;;;27.88;;
79005;SDS011;69202;45.498;-73.582;2023-09-30T06:49:28;49.40;;;30.13;;
79005;SDS011;69202;45.498;-73.582;2023-09-30T06:51:54;44.67;;;27.80;;
79005;SDS011;69202;45.498;-73.582;2023-09-30T06:54:20;40.95;;;27.75;;
79005;SDS011;69202;45.498;-73.582;2023-09-30T06:56:46;43.42;;;27.23;;
79005;SDS011;69202;45.498;-73.582;2023-09-30T06:59:12;40.30;;;26.25;;
79005;SDS011;69202;45.498;-73.582;2023-09-30T07:01:38;40.20;;;26.48;;
79005;SDS011;69202;45.498;-73.582;2023-09-30T07:04:04;42.15;;;26.90;;
79005;SDS011;69202;45.498;-73.582;2023-09-30T07:06:31;41.58;;;27.40;;
79005;SDS011;69202;45.498;-73.582;2023-09-30T07:08:57;42.90;;;26.33;;
79005;SDS011;69202;45.498;-73.582;2023-09-30T07:11:29;38.53;;;25.88;;
79005;SDS011;69202;45.498;-73.582;2023-09-30T07:13:59;39.30;;;26.17;;
79005;SDS011;69202;45.498;-73.582;2023-09-30T07:16:25;41.42;;;26.42;;
79005;SDS011;69202;45.498;-73.582;2023-09-30T07:18:51;41.17;;;26.50;;
79005;SDS011;69202;45.498;-73.582;2023-09-30T07:21:17;39.95;;;26.20;;
79005;SDS011;69202;45.498;-73.582;2023-09-30T07:23:43;40.22;;;25.30;;
79005;SDS011;69202;45.498;-73.582;2023-09-30T07:26:09;39.17;;;25.58;;
79005;SDS011;69202;45.498;-73.582;2023-09-30T07:28:35;40.15;;;25.83;;
79005;SDS011;69202;45.498;-73.582;2023-09-30T07:31:01;40.60;;;25.27;;
79005;SDS011;69202;45.498;-73.582;2023-09-30T07:33:27;43.00;;;26.17;;
79005;SDS011;69202;45.498;-73.582;2023-09-30T07:35:54;40.70;;;26.75;;
79005;SDS011;69202;45.498;-73.582;2023-09-30T07:38:21;39.35;;;25.40;;
79005;SDS011;69202;45.498;-73.582;2023-09-30T07:40:47;38.80;;;24.55;;
79005;SDS011;69202;45.498;-73.582;2023-09-30T07:43:14;44.45;;;25.90;;
79005;SDS011;69202;45.498;-73.582;2023-09-30T07:45:43;40.58;;;25.75;;
79005;SDS011;69202;45.498;-73.582;2023-09-30T07:48:09;39.35;;;25.85;;
79005;SDS011;69202;45.498;-73.582;2023-09-30T07:50:35;36.17;;;25.83;;
79005;SDS011;69202;45.498;-73.582;2023-09-30T07:53:03;40.92;;;26.52;;
79005;SDS011;69202;45.498;-73.582;2023-09-30T07:55:28;40.92;;;26.85;;
79005;SDS011;69202;45.498;-73.582;2023-09-30T07:57:54;39.90;;;27.42;;
79005;SDS011;69202;45.498;-73.582;2023-09-30T08:00:24;42.33;;;26.65;;
79005;SDS011;69202;45.498;-73.582;2023-09-30T08:02:50;42.75;;;28.48;;
79005;SDS011;69202;45.498;-73.582;2023-09-30T08:05:16;41.55;;;26.48;;
79005;SDS011;69202;45.498;-73.582;2023-09-30T08:07:42;42.83;;;27.38;;
79005;SDS011;69202;45.498;-73.582;2023-09-30T08:10:08;43.92;;;27.55;;
79005;SDS011;69202;45.498;-73.582;2023-09-30T08:12:39;42.55;;;27.02;;
79005;SDS011;69202;45.498;-73.582;2023-09-30T08:15:06;48.45;;;28.95;;
79005;SDS011;69202;45.498;-73.582;2023-09-30T08:17:32;46.25;;;28.10;;
79005;SDS011;69202;45.498;-73.582;2023-09-30T08:19:59;42.05;;;27.30;;
79005;SDS011;69202;45.498;-73.582;2023-09-30T08:22:25;41.28;;;28.30;;
79005;SDS011;69202;45.498;-73.582;2023-09-30T08:24:53;45.80;;;28.50;;
79005;SDS011;69202;45.498;-73.582;2023-09-30T08:27:19;44.13;;;28.10;;
79005;SDS011;69202;45.498;-73.582;2023-09-30T08:29:45;50.47;;;29.00;;
79005;SDS011;69202;45.498;-73.582;2023-09-30T08:32:11;42.55;;;27.80;;
79005;SDS011;69202;45.498;-73.582;2023-09-30T08:34:37;41.17;;;26.73;;
79005;SDS011;69202;45.498;-73.582;2023-09-30T08:37:03;44.60;;;27.38;;
79005;SDS011;69202;45.498;-73.582;2023-09-30T08:39:29;46.45;;;26.00;;
79005;SDS011;69202;45.498;-73.582;2023-09-30T08:41:55;39.35;;;25.63;;
79005;SDS011;69202;45.498;-73.582;2023-09-30T08:44:24;43.33;;;26.98;;
79005;SDS011;69202;45.498;-73.582;2023-09-30T08:46:51;38.30;;;25.20;;
79005;SDS011;69202;45.498;-73.582;2023-09-30T08:49:19;41.15;;;25.27;;
79005;SDS011;69202;45.498;-73.582;2023-09-30T08:51:46;40.00;;;26.15;;
79005;SDS011;69202;45.498;-73.582;2023-09-30T08:54:14;38.45;;;24.98;;
79005;SDS011;69202;45.498;-73.582;2023-09-30T08:56:40;36.25;;;24.38;;
79005;SDS011;69202;45.498;-73.582;2023-09-30T08:59:11;37.42;;;23.08;;
79005;SDS011;69202;45.498;-73.582;2023-09-30T09:01:37;43.60;;;25.90;;
79005;SDS011;69202;45.498;-73.582;2023-09-30T09:04:04;45.35;;;30.42;;
79005;SDS011;69202;45.498;-73.582;2023-09-30T09:06:32;48.75;;;31.27;;
79005;SDS011;69202;45.498;-73.582;2023-09-30T09:09:17;51.03;;;32.13;;
79005;SDS011;69202;45.498;-73.582;2023-09-30T09:11:46;50.33;;;33.75;;
79005;SDS011;69202;45.498;-73.582;2023-09-30T09:14:12;53.50;;;33.25;;
79005;SDS011;69202;45.498;-73.582;2023-09-30T09:16:50;44.20;;;28.52;;
79005;SDS011;69202;45.498;-73.582;2023-09-30T09:19:20;54.97;;;34.15;;
79005;SDS011;69202;45.498;-73.582;2023-09-30T09:21:53;57.17;;;37.58;;
79005;SDS011;69202;45.498;-73.582;2023-09-30T09:24:41;61.13;;;37.90;;
79005;SDS011;69202;45.498;-73.582;2023-09-30T09:27:08;62.28;;;39.88;;
79005;SDS011;69202;45.498;-73.582;2023-09-30T09:29:39;64.55;;;38.90;;
79005;SDS011;69202;45.498;-73.582;2023-09-30T09:32:15;66.82;;;40.92;;
79005;SDS011;69202;45.498;-73.582;2023-09-30T09:34:43;66.53;;;39.55;;
79005;SDS011;69202;45.498;-73.582;2023-09-30T09:37:13;65.60;;;40.60;;
79005;SDS011;69202;45.498;-73.582;2023-09-30T09:39:40;60.63;;;38.80;;
79005;SDS011;69202;45.498;-73.582;2023-09-30T09:42:16;63.38;;;39.15;;
79005;SDS011;69202;45.498;-73.582;2023-09-30T09:45:02;65.68;;;42.22;;
79005;SDS011;69202;45.498;-73.582;2023-09-30T09:47:31;62.67;;;39.55;;
79005;SDS011;69202;45.498;-73.582;2023-09-30T09:49:58;58.28;;;38.63;;
79005;SDS011;69202;45.498;-73.582;2023-09-30T09:52:25;64.70;;;38.42;;
79005;SDS011;69202;45.498;-73.582;2023-09-30T09:54:52;63.72;;;39.13;;
79005;SDS011;69202;45.498;-73.582;2023-09-30T09:57:19;62.97;;;39.30;;
79005;SDS011;69202;45.498;-73.582;2023-09-30T09:59:45;60.92;;;38.38;;
79005;SDS011;69202;45.498;-73.582;2023-09-30T10:02:16;64.63;;;38.80;;
79005;SDS011;69202;45.498;-73.582;2023-09-30T10:04:43;61.65;;;38.67;;
79005;SDS011;69202;45.498;-73.582;2023-09-30T10:07:10;60.60;;;37.58;;
79005;SDS011;69202;45.498;-73.582;2023-09-30T10:09:50;60.38;;;37.55;;
79005;SDS011;69202;45.498;-73.582;2023-09-30T10:12:18;56.92;;;36.65;;
79005;SDS011;69202;45.498;-73.582;2023-09-30T10:14:48;52.72;;;36.33;;
79005;SDS011;69202;45.498;-73.582;2023-09-30T10:17:14;57.80;;;37.78;;
79005;SDS011;69202;45.498;-73.582;2023-09-30T10:22:34;59.72;;;38.53;;
79005;SDS011;69202;45.498;-73.582;2023-09-30T10:25:01;59.00;;;37.47;;
79005;SDS011;69202;45.498;-73.582;2023-09-30T10:30:13;65.88;;;38.08;;
79005;SDS011;69202;45.498;-73.582;2023-09-30T10:35:41;58.67;;;36.60;;
79005;SDS011;69202;45.498;-73.582;2023-09-30T10:40:52;59.97;;;37.05;;
79005;SDS011;69202;45.498;-73.582;2023-09-30T10:43:31;65.93;;;37.88;;
79005;SDS011;69202;45.498;-73.582;2023-09-30T10:45:59;60.88;;;36.88;;
79005;SDS011;69202;45.498;-73.582;2023-09-30T10:50:52;62.22;;;37.15;;
79005;SDS011;69202;45.498;-73.582;2023-09-30T10:53:24;61.78;;;37.65;;
79005;SDS011;69202;45.498;-73.582;2023-09-30T10:55:57;59.70;;;36.75;;
79005;SDS011;69202;45.498;-73.582;2023-09-30T10:58:40;69.40;;;37.33;;
79005;SDS011;69202;45.498;-73.582;2023-09-30T11:01:07;57.90;;;37.40;;
79005;SDS011;69202;45.498;-73.582;2023-09-30T11:03:33;61.88;;;37.30;;
79005;SDS011;69202;45.498;-73.582;2023-09-30T11:06:00;57.47;;;36.85;;
79005;SDS011;69202;45.498;-73.582;2023-09-30T11:08:27;55.85;;;36.70;;
79005;SDS011;69202;45.498;-73.582;2023-09-30T11:10:58;57.00;;;35.47;;
79005;SDS011;69202;45.498;-73.582;2023-09-30T11:13:30;56.05;;;36.78;;
79005;SDS011;69202;45.498;-73.582;2023-09-30T11:16:04;64.45;;;38.75;;
79005;SDS011;69202;45.498;-73.582;2023-09-30T11:18:31;64.75;;;38.28;;
79005;SDS011;69202;45.498;-73.582;2023-09-30T11:21:04;60.20;;;37.60;;
79005;SDS011;69202;45.498;-73.582;2023-09-30T11:23:38;61.15;;;39.15;;
79005;SDS011;69202;45.498;-73.582;2023-09-30T11:26:06;62.35;;;36.90;;
79005;SDS011;69202;45.498;-73.582;2023-09-30T11:28:35;53.03;;;36.47;;
79005;SDS011;69202;45.498;-73.582;2023-09-30T11:31:02;57.10;;;37.55;;
79005;SDS011;69202;45.498;-73.582;2023-09-30T11:33:29;60.60;;;37.85;;
79005;SDS011;69202;45.498;-73.582;2023-09-30T11:36:05;60.13;;;36.50;;
79005;SDS011;69202;45.498;-73.582;2023-09-30T11:38:32;64.68;;;39.22;;
79005;SDS011;69202;45.498;-73.582;2023-09-30T11:43:28;59.13;;;39.22;;
79005;SDS011;69202;45.498;-73.582;2023-09-30T11:46:10;58.05;;;39.50;;
79005;SDS011;69202;45.498;-73.582;2023-09-30T11:48:40;62.33;;;39.38;;
79005;SDS011;69202;45.498;-73.582;2023-09-30T11:51:25;58.40;;;38.38;;
79005;SDS011;69202;45.498;-73.582;2023-09-30T11:53:57;58.25;;;38.90;;
79005;SDS011;69202;45.498;-73.582;2023-09-30T11:56:27;61.15;;;38.05;;
79005;SDS011;69202;45.498;-73.582;2023-09-30T11:58:55;59.13;;;36.60;;
79005;SDS011;69202;45.498;-73.582;2023-09-30T12:01:22;64.65;;;40.03;;
79005;SDS011;69202;45.498;-73.582;2023-09-30T12:03:50;59.13;;;37.97;;
79005;SDS011;69202;45.498;-73.582;2023-09-30T12:06:17;63.90;;;40.03;;
79005;SDS011;69202;45.498;-73.582;2023-09-30T12:08:43;63.05;;;38.95;;
79005;SDS011;69202;45.498;-73.582;2023-09-30T12:11:10;64.13;;;39.28;;
79005;SDS011;69202;45.498;-73.582;2023-09-30T12:13:38;56.97;;;38.30;;
79005;SDS011;69202;45.498;-73.582;2023-09-30T12:16:04;64.78;;;38.80;;
79005;SDS011;69202;45.498;-73.582;2023-09-30T12:18:30;61.78;;;36.95;;
79005;SDS011;69202;45.498;-73.582;2023-09-30T12:20:56;54.25;;;35.70;;
79005;SDS011;69202;45.498;-73.582;2023-09-30T12:23:22;54.47;;;35.45;;
79005;SDS011;69202;45.498;-73.582;2023-09-30T12:25:48;53.90;;;35.58;;
79005;SDS011;69202;45.498;-73.582;2023-09-30T12:28:15;55.63;;;34.95;;
79005;SDS011;69202;45.498;-73.582;2023-09-30T12:30:42;54.90;;;36.47;;
79005;SDS011;69202;45.498;-73.582;2023-09-30T12:33:08;54.70;;;37.13;;
79005;SDS011;69202;45.498;-73.582;2023-09-30T12:35:35;52.95;;;36.50;;
79005;SDS011;69202;45.498;-73.582;2023-09-30T12:38:02;57.28;;;36.03;;
79005;SDS011;69202;45.498;-73.582;2023-09-30T12:40:28;52.90;;;34.67;;
79005;SDS011;69202;45.498;-73.582;2023-09-30T12:42:55;53.22;;;35.80;;
79005;SDS011;69202;45.498;-73.582;2023-09-30T12:45:20;57.28;;;36.03;;
79005;SDS011;69202;45.498;-73.582;2023-09-30T12:47:46;55.40;;;37.00;;
79005;SDS011;69202;45.498;-73.582;2023-09-30T12:50:13;53.88;;;36.60;;
79005;SDS011;69202;45.498;-73.582;2023-09-30T12:52:39;58.67;;;36.75;;
79005;SDS011;69202;45.498;-73.582;2023-09-30T12:55:06;50.65;;;35.85;;
79005;SDS011;69202;45.498;-73.582;2023-09-30T12:57:32;52.28;;;34.95;;
79005;SDS011;69202;45.498;-73.582;2023-09-30T12:59:58;61.10;;;35.47;;
79005;SDS011;69202;45.498;-73.582;2023-09-30T13:02:23;54.45;;;35.28;;
79005;SDS011;69202;45.498;-73.582;2023-09-30T13:04:49;53.95;;;35.70;;
79005;SDS011;69202;45.498;-73.582;2023-09-30T13:07:15;51.67;;;33.67;;
79005;SDS011;69202;45.498;-73.582;2023-09-30T13:09:41;56.00;;;35.55;;
79005;SDS011;69202;45.498;-73.582;2023-09-30T13:12:08;56.55;;;36.92;;
79005;SDS011;69202;45.498;-73.582;2023-09-30T13:14:34;60.25;;;37.97;;
79005;SDS011;69202;45.498;-73.582;2023-09-30T13:17:00;56.58;;;38.30;;
79005;SDS011;69202;45.498;-73.582;2023-09-30T13:19:29;65.25;;;38.05;;
79005;SDS011;69202;45.498;-73.582;2023-09-30T13:21:55;55.00;;;37.10;;
79005;SDS011;69202;45.498;-73.582;2023-09-30T13:24:22;61.58;;;36.95;;
79005;SDS011;69202;45.498;-73.582;2023-09-30T13:26:48;60.10;;;38.15;;
79005;SDS011;69202;45.498;-73.582;2023-09-30T13:29:18;55.75;;;37.03;;
79005;SDS011;69202;45.498;-73.582;2023-09-30T13:31:44;58.05;;;36.22;;
79005;SDS011;69202;45.498;-73.582;2023-09-30T13:34:10;52.70;;;35.67;;
79005;SDS011;69202;45.498;-73.582;2023-09-30T13:36:37;57.95;;;36.03;;
79005;SDS011;69202;45.498;-73.582;2023-09-30T13:39:03;60.75;;;37.25;;
79005;SDS011;69202;45.498;-73.582;2023-09-30T13:41:35;63.78;;;38.65;;
79005;SDS011;69202;45.498;-73.582;2023-09-30T13:44:01;54.90;;;35.10;;
79005;SDS011;69202;45.498;-73.582;2023-09-30T13:46:27;53.33;;;36.08;;
79005;SDS011;69202;45.498;-73.582;2023-09-30T13:48:54;56.42;;;37.05;;
79005;SDS011;69202;45.498;-73.582;2023-09-30T13:51:20;57.13;;;34.55;;
79005;SDS011;69202;45.498;-73.582;2023-09-30T13:53:46;51.92;;;36.08;;
79005;SDS011;69202;45.498;-73.582;2023-09-30T13:56:12;60.85;;;37.92;;
79005;SDS011;69202;45.498;-73.582;2023-09-30T13:58:38;55.97;;;36.38;;
79005;SDS011;69202;45.498;-73.582;2023-09-30T14:01:04;61.47;;;36.63;;
79005;SDS011;69202;45.498;-73.582;2023-09-30T14:03:32;55.75;;;35.75;;
79005;SDS011;69202;45.498;-73.582;2023-09-30T14:05:59;53.67;;;34.80;;
79005;SDS011;69202;45.498;-73.582;2023-09-30T14:08:25;50.55;;;35.63;;
79005;SDS011;69202;45.498;-73.582;2023-09-30T14:10:50;53.10;;;38.42;;
79005;SDS011;69202;45.498;-73.582;2023-09-30T14:13:17;53.28;;;36.08;;
79005;SDS011;69202;45.498;-73.582;2023-09-30T14:15:44;51.38;;;37.28;;